Sikeston, Missouri
Current Conditions -  °F | °C
As of 3:35 AM on Monday 22 Dec 2014 (Local Time) from KCIR Reporting Station
Overcast Overcast  
Wind Chill: 42°   Ceiling: 8000
Heat Index: 46°   Visibility: 10mi
Dew Point: 39°   Wind: 7mph
Humidity: 79%   Direction: 110°ESE
Pressure: 29.88"   Gusts: NA
Location:  36.88°N, 89.59°W
Report Text: KCIR 220935Z AUTO 11006KT 10SM OVC080 08/04 A2988 RMK AO2 T00760041
Loading
Personal Weather Stations






























Interactive Weather Map New forecast layout! Learn more

10-Day Weather Forecast

Advertisements
Track Severe Weather on mobile